createdAt,value
2023-02-04T00:01:16.048Z,84.61104456812262
2023-02-04T00:04:16.244Z,85.29216275721413
2023-02-04T00:07:18.845Z,85.44309794535747
2023-02-04T00:11:15.866Z,86.2330702595831
2023-02-04T00:14:16.197Z,86.66802497863763
2023-02-04T00:17:16.294Z,86.9806517171401
2023-02-04T00:21:16.639Z,86.5457032493396
2023-02-04T00:24:16.976Z,85.46955518492894
2023-02-04T00:27:16.868Z,84.5666997712321
2023-02-04T00:31:16.199Z,84.17510075657124
2023-02-04T00:34:18.535Z,84.76853521164811
2023-02-04T00:37:16.548Z,85.52828531364062
2023-02-04T00:41:15.913Z,86.34715505962475
2023-02-04T00:44:16.416Z,85.97917655675533
2023-02-04T00:47:16.345Z,86.0936827206473
2023-02-04T00:51:16.061Z,85.56329573981328
2023-02-04T00:54:16.290Z,86.47624768044342
2023-02-04T00:57:16.557Z,86.43149844444851
2023-02-04T01:01:17.199Z,86.94832385959357
2023-02-04T01:04:17.685Z,87.21758499718264
2023-02-04T01:07:17.805Z,87.18921031057457
2023-02-04T01:11:15.966Z,86.20519762671051
2023-02-04T01:14:16.174Z,86.0072144050101
2023-02-04T01:17:16.132Z,85.50592298771049
2023-02-04T01:21:16.932Z,84.88284665111362
2023-02-04T01:24:16.814Z,84.35085984074186
2023-02-04T01:27:16.853Z,84.52461576843002
2023-02-04T01:31:16.403Z,84.26983718095818
2023-02-04T01:34:16.183Z,83.84312981284191
2023-02-04T01:37:16.350Z,83.72332529679483
2023-02-04T01:41:17.062Z,83.38949684118148
2023-02-04T01:44:16.522Z,82.8928932078281
2023-02-04T01:47:16.742Z,81.64154181966805
2023-02-04T01:51:23.862Z,80.62129778308224
2023-02-04T01:54:18.254Z,81.17955734835915
2023-02-04T01:57:17.319Z,81.84007301141
2023-02-04T02:01:34.521Z,82.21431324161804
2023-02-04T02:11:16.169Z,82.52325949019541
2023-02-04T02:14:16.599Z,81.57621825484607
2023-02-04T02:17:16.311Z,81.3953694218456
2023-02-04T02:21:21.069Z,81.59701330257327
2023-02-04T02:24:33.343Z,81.47358797603316
2023-02-04T02:27:16.653Z,81.58861612036137
2023-02-04T02:31:18.076Z,82.03100420144543
2023-02-04T02:34:16.684Z,82.49124278691744
2023-02-04T02:37:16.491Z,83.44863268731415
2023-02-04T02:41:15.986Z,84.1117353311284
2023-02-04T02:44:17.388Z,83.83336169450689
2023-02-04T02:47:19.316Z,83.12189355133758
2023-02-04T02:51:16.271Z,83.33164834664686
2023-02-04T02:54:22.268Z,83.36660314396876
2023-02-04T03:11:16.612Z,84.56593484906858
2023-02-04T03:14:17.776Z,84.67899368083579
2023-02-04T03:17:17.528Z,85.5266889458508
2023-02-04T03:21:16.176Z,85.6383590250587
2023-02-04T03:24:17.727Z,85.76672687797522
2023-02-04T03:27:16.594Z,85.58534555694068
2023-02-04T03:31:16.930Z,85.49589334503784
2023-02-04T03:34:17.545Z,85.2190109206773
2023-02-04T03:37:17.092Z,85.72536436216464
2023-02-04T03:41:16.687Z,86.15321711934234
2023-02-04T03:44:17.102Z,86.21682634768804
2023-02-04T03:47:17.074Z,87.09009571019408
2023-02-04T03:51:16.450Z,87.61201684122592
2023-02-04T03:54:16.770Z,87.9337290400958
2023-02-04T03:57:16.736Z,87.64342972892514
2023-02-04T04:01:16.284Z,87.96579366094647
2023-02-04T04:04:16.512Z,88.51943456173879
2023-02-04T04:07:16.475Z,88.99305098032397
2023-02-04T04:11:16.659Z,89.74389156768318
2023-02-04T04:14:17.123Z,89.48348239857361
2023-02-04T04:17:17.019Z,89.77479398130446
2023-02-04T04:21:15.778Z,89.93657874332122
2023-02-04T04:24:16.187Z,90.14438177454646
2023-02-04T04:27:16.279Z,90.12333870948497
2023-02-04T04:31:15.990Z,89.60302956793723
2023-02-04T04:34:16.093Z,89.53633475007076
2023-02-04T04:37:16.115Z,88.37401162721117
2023-02-04T04:41:16.547Z,88.09271799230959
2023-02-04T04:44:16.956Z,88.25596396967799
2023-02-04T04:47:17.014Z,88.55657620330177
2023-02-04T04:51:15.869Z,88.81663311911687
2023-02-04T04:54:16.242Z,88.83518336093584
2023-02-04T04:57:16.422Z,88.99233009288221
2023-02-04T05:01:16.744Z,89.23011508038662
2023-02-04T05:04:17.161Z,89.05813101955523
2023-02-04T05:07:17.112Z,89.02117765803267
2023-02-04T05:11:15.689Z,88.29089420568657
2023-02-04T05:14:16.170Z,87.78188561000293
2023-02-04T05:17:16.123Z,87.54384646106087
2023-02-04T05:21:16.150Z,87.48322185472503
2023-02-04T05:24:16.216Z,87.67524397169272
2023-02-04T05:27:16.355Z,87.66106781873772
2023-02-04T05:31:16.395Z,87.23294197041079
2023-02-04T05:34:16.878Z,87.07671945494656
2023-02-04T05:37:18.940Z,87.18179319226618
2023-02-04T05:41:15.887Z,87.05699916959244
2023-02-04T05:44:16.333Z,86.7542576609863
2023-02-04T05:47:16.766Z,86.55620095064253
2023-02-04T05:51:16.576Z,86.21183434074456
2023-02-04T05:54:19.870Z,86.40975315879119
2023-02-04T05:57:17.138Z,86.74928151579203
2023-02-04T06:01:16.683Z,86.67475459738819
2023-02-04T06:04:16.792Z,86.80504975524971
2023-02-04T06:07:16.755Z,86.73513126687902
2023-02-04T06:11:16.423Z,86.36380219024697
2023-02-04T06:14:16.873Z,86.33507597687932
2023-02-04T06:17:17.058Z,86.28199746247513
2023-02-04T06:21:16.435Z,86.16334570738037
2023-02-04T06:24:16.537Z,86.37142512953315
2023-02-04T06:27:23.414Z,86.05326021784937
2023-02-04T06:31:17.111Z,86.03493962266192
2023-02-04T06:34:16.984Z,85.84270223106711
2023-02-04T06:37:17.353Z,85.79264516105548
2023-02-04T06:41:16.248Z,86.02655746999243
2023-02-04T06:44:16.478Z,86.22814948720571
2023-02-04T06:47:17.047Z,86.41448462486586
2023-02-04T06:51:16.252Z,86.45839510068228
2023-02-04T06:54:16.656Z,86.3673318684087
2023-02-04T06:57:16.417Z,86.06257814130119
2023-02-04T07:01:15.890Z,86.46901247324962
2023-02-04T07:04:16.382Z,86.27548430057088
2023-02-04T07:07:16.338Z,86.15893271302332
2023-02-04T07:11:16.079Z,86.39872283192219
2023-02-04T07:14:16.221Z,86.4742778356057
2023-02-04T07:17:16.135Z,86.60110413083402
2023-02-04T07:21:16.680Z,86.60308010870409
2023-02-04T07:24:16.678Z,86.57461229090879
2023-02-04T07:27:16.706Z,86.85095663593663
2023-02-04T07:31:16.583Z,87.02055944062514
2023-02-04T07:34:18.103Z,87.25740702803199
2023-02-04T07:37:16.735Z,87.19092482625526
2023-02-04T07:41:16.774Z,87.30967892602324
2023-02-04T07:44:17.115Z,86.63716309666047
2023-02-04T07:47:17.196Z,86.71784245650679
2023-02-04T07:51:16.217Z,87.1224267304286
2023-02-04T07:54:16.559Z,86.78603169664383
2023-02-04T07:57:16.670Z,87.00281445795763
2023-02-04T08:01:17.494Z,87.21905017294229
2023-02-04T08:04:17.546Z,87.25108840495362
2023-02-04T08:07:17.281Z,87.45909161713128
2023-02-04T08:11:15.854Z,87.95135199739498
2023-02-04T08:14:16.670Z,88.21424716347023
2023-02-04T08:17:16.228Z,87.90227439975324
2023-02-04T08:21:18.714Z,88.28834998832106
2023-02-04T08:24:18.200Z,88.2853224900654
2023-02-04T08:27:20.809Z,88.68989306693749
2023-02-04T08:31:17.010Z,88.38865234959707
2023-02-04T08:34:16.537Z,87.72074080507348
2023-02-04T08:37:16.221Z,87.39898371783745
2023-02-04T08:41:16.239Z,86.47428166368721
2023-02-04T08:44:16.762Z,86.08115886757513
2023-02-04T08:47:16.553Z,85.39052803488093
2023-02-04T08:51:17.256Z,84.70439140467305
2023-02-04T08:54:16.621Z,83.98875786574463
2023-02-04T08:57:16.507Z,83.3975835910932
2023-02-04T09:01:16.878Z,82.6412925363221
2023-02-04T09:04:16.406Z,81.78562365807734
2023-02-04T09:07:16.627Z,81.43148540159082
2023-02-04T09:11:16.739Z,80.53959303581723
2023-02-04T09:14:17.399Z,80.28259677523508
2023-02-04T09:17:18.004Z,79.73975712547711
2023-02-04T09:21:16.412Z,79.02940006395434
2023-02-04T09:24:16.519Z,79.0215719670321
2023-02-04T09:27:16.630Z,78.50729842409085
2023-02-04T09:31:16.631Z,78.5159881308322
2023-02-04T09:34:16.640Z,77.95740866911784
2023-02-04T09:37:16.560Z,77.37630523900495
2023-02-04T09:41:16.919Z,77.70845651171734
2023-02-04T09:44:21.712Z,77.82173836115084
2023-02-04T09:47:21.264Z,77.91442283551345
2023-02-04T09:51:20.208Z,77.4822853045208
2023-02-04T09:54:19.090Z,77.91635623643361
2023-02-04T09:57:19.254Z,79.88770399433902
2023-02-04T10:01:19.141Z,81.84870100113089
2023-02-04T10:04:17.170Z,81.99579981044106
2023-02-04T10:07:20.793Z,81.29518491966243
2023-02-04T10:11:19.777Z,80.16559860488448
2023-02-04T10:14:20.596Z,80.29064133675857
2023-02-04T10:17:21.251Z,79.00454469742714
2023-02-04T10:21:19.972Z,78.23801764512577
2023-02-04T10:24:19.381Z,76.95213334749843
2023-02-04T10:27:16.983Z,76.47101087203464
2023-02-04T10:31:34.870Z,75.67486295923896
2023-02-04T10:34:19.275Z,75.1777116330795
2023-02-04T10:37:19.452Z,74.48814243848598
2023-02-04T10:41:16.829Z,75.6938514565512
2023-02-04T10:44:19.306Z,74.07467152201694
2023-02-04T10:47:19.724Z,73.59452058301217
2023-02-04T10:51:15.953Z,73.1250434385278
2023-02-04T10:54:37.479Z,73.31751391777645
2023-02-04T10:57:21.745Z,69.9945120346541
2023-02-04T11:01:17.075Z,70.22158840947182
2023-02-04T11:04:16.557Z,68.26492641312146
2023-02-04T11:07:16.654Z,71.00425267990708
2023-02-04T11:11:18.599Z,65.95367644468156
2023-02-04T11:14:23.545Z,65.31110681731428
2023-02-04T11:17:20.521Z,64.1861032958816
2023-02-04T11:21:27.106Z,64.93209666475248
2023-02-04T11:24:24.808Z,64.62016275654824
2023-02-04T11:27:21.994Z,64.60772993585107
2023-02-04T11:31:59.358Z,62.08188099551127
2023-02-04T11:34:31.697Z,63.743742144743265
2023-02-04T11:37:33.398Z,62.37462897617941
2023-02-04T11:41:23.804Z,61.99297265647538
2023-02-04T11:44:17.714Z,59.97266735520903
2023-02-04T11:47:17.173Z,59.229829165707386
2023-02-04T11:51:17.666Z,59.28730807868627
2023-02-04T11:54:19.206Z,58.25628155931194
2023-02-04T11:57:16.360Z,56.88738324017426
2023-02-04T12:01:17.169Z,57.2369572950982
2023-02-04T12:04:23.121Z,56.966511810838476
2023-02-04T12:07:22.938Z,55.59727847130804
2023-02-04T12:11:26.122Z,55.865497833818836
2023-02-04T12:14:18.107Z,55.814832696914586
2023-02-04T12:17:19.152Z,55.57509169592248
2023-02-04T12:21:16.879Z,56.01349485401093
2023-02-04T12:24:16.957Z,55.732672285169606
2023-02-04T12:27:17.044Z,55.33519011922643
2023-02-04T12:31:16.806Z,54.28135770766221
2023-02-04T12:34:17.868Z,54.916663960458074
2023-02-04T12:37:17.124Z,53.813630328426115
2023-02-04T12:41:16.223Z,53.365734306060936
2023-02-04T12:44:17.655Z,53.079921683696966
2023-02-04T12:47:16.737Z,52.8134993933121
2023-02-04T12:51:16.605Z,52.65230564103037
2023-02-04T12:54:17.430Z,53.32202803045659
2023-02-04T12:57:19.912Z,52.606489283622274
2023-02-04T13:01:16.755Z,51.74480963435092
2023-02-04T13:04:17.117Z,52.285762645615094
2023-02-04T13:07:17.684Z,52.344095919884545
2023-02-04T13:11:16.249Z,52.11148212702076
2023-02-04T13:14:16.546Z,51.979903386643954
2023-02-04T13:17:16.791Z,52.10107845542258
2023-02-04T13:21:16.028Z,52.10700396590677
2023-02-04T13:24:17.393Z,52.333849319542324
2023-02-04T13:27:16.453Z,52.2723490993132
2023-02-04T13:31:16.947Z,52.63162713843484
2023-02-04T13:34:17.851Z,52.27885247503305
2023-02-04T13:37:17.314Z,51.86945809666594
2023-02-04T13:41:15.802Z,50.855341509737706
2023-02-04T13:44:16.257Z,51.60540634537098
2023-02-04T13:47:16.397Z,51.33492045894772
2023-02-04T13:51:17.198Z,51.342015179095796
2023-02-04T13:54:17.216Z,50.1363020160748
2023-02-04T13:57:17.986Z,49.92289485577515
2023-02-04T14:01:16.222Z,49.338328473369714
2023-02-04T14:04:16.504Z,49.581931454948304
2023-02-04T14:07:16.545Z,49.03674932174326
2023-02-04T14:11:16.181Z,49.50879658444358
2023-02-04T14:14:16.612Z,50.25149047476361
2023-02-04T14:17:16.550Z,50.066950165379104
2023-02-04T14:21:16.560Z,50.02371967683639
2023-02-04T14:24:17.597Z,50.47327383558976
2023-02-04T14:27:16.851Z,50.65516704178169
2023-02-04T14:31:16.056Z,50.9038206172941
2023-02-04T14:34:16.382Z,51.11912521986485
2023-02-04T14:37:16.349Z,51.298274013496474
2023-02-04T14:41:20.352Z,51.35949351836715
2023-02-04T14:44:20.916Z,50.97479135800848
2023-02-04T14:47:16.985Z,51.77130487364634
2023-02-04T14:51:16.032Z,51.41736695664933
2023-02-04T14:54:16.786Z,51.30105447030627
2023-02-04T14:57:16.576Z,52.038816558174986
2023-02-04T15:01:17.315Z,52.64474698074725
2023-02-04T15:04:18.500Z,52.43892609860558
2023-02-04T15:07:17.012Z,52.9992628838201
2023-02-04T15:11:15.885Z,53.1605552788849
2023-02-04T15:14:16.373Z,53.37538606776671
2023-02-04T15:17:16.369Z,53.61752461429325
2023-02-04T15:21:17.512Z,54.259958170002484
2023-02-04T15:24:17.133Z,54.35566048874479
2023-02-04T15:27:16.899Z,54.316238780779706
2023-02-04T15:31:16.830Z,54.41845327175939
2023-02-04T15:34:16.992Z,54.36659439068371
2023-02-04T15:37:16.976Z,54.45063983833029
2023-02-04T15:41:16.418Z,54.45485066779667
2023-02-04T15:44:16.718Z,54.61306319781234
2023-02-04T15:47:16.771Z,54.66662426240978
2023-02-04T15:51:16.561Z,54.61854301066485
2023-02-04T15:54:18.312Z,54.86520749661198
2023-02-04T15:57:17.087Z,54.755072270253606
2023-02-04T16:01:18.338Z,54.91216353876865
2023-02-04T16:04:19.234Z,55.00031221231559
2023-02-04T16:07:17.867Z,55.189343272763196
2023-02-04T16:11:16.484Z,55.34864796104578
2023-02-04T16:14:16.474Z,55.559423392056964
2023-02-04T16:17:19.000Z,56.00760923800015
2023-02-04T16:21:17.681Z,56.499388466486735
2023-02-04T16:24:18.777Z,56.502869126727056
2023-02-04T16:27:17.694Z,56.75172966578676
2023-02-04T16:31:16.496Z,57.15247179217158
2023-02-04T16:34:17.596Z,57.36934049367048
2023-02-04T16:37:17.724Z,57.54988562634324
2023-02-04T16:41:16.178Z,57.787849571379354
2023-02-04T16:44:16.639Z,57.974513685876936
2023-02-04T16:47:16.582Z,58.146174803880754
2023-02-04T16:51:18.076Z,58.58578959033795
2023-02-04T16:54:16.906Z,58.97477002716066
2023-02-04T16:57:17.118Z,59.5360644120887
2023-02-04T17:01:17.508Z,59.95193249786676
2023-02-04T17:04:17.264Z,60.260206587838006
2023-02-04T17:07:17.095Z,60.745948860565164
2023-02-04T17:11:32.430Z,61.04361880718383
2023-02-04T17:14:16.360Z,61.53718209921522
2023-02-04T17:17:16.347Z,61.79158301743028
2023-02-04T17:21:16.237Z,62.09779500835468
2023-02-04T17:24:16.343Z,62.64131729681028
2023-02-04T17:27:16.142Z,63.04675520031159
2023-02-04T17:31:16.595Z,62.939926213700545
2023-02-04T17:34:17.188Z,63.33658596070426
2023-02-04T17:37:16.886Z,63.43959336794056
2023-02-04T17:41:18.280Z,63.62452752695273
2023-02-04T17:44:20.237Z,63.61393330079317
2023-02-04T17:47:17.817Z,63.83581854565108
2023-02-04T17:51:17.500Z,64.15589437901964
2023-02-04T17:54:16.330Z,64.55609005896731
2023-02-04T17:57:19.017Z,65.14544734023491
2023-02-04T18:01:18.525Z,65.3325623078831
2023-02-04T18:04:16.821Z,65.43373785825835
2023-02-04T18:07:16.842Z,65.2796309443263
2023-02-04T18:11:20.059Z,64.53798960729466
2023-02-04T18:14:23.770Z,64.46131270044938
2023-02-04T18:17:17.212Z,63.291896653173346
2023-02-04T18:21:19.725Z,61.708350710041046
2023-02-04T18:24:21.779Z,60.576923444724464
2023-02-04T18:27:23.207Z,59.473853157243326
2023-02-04T18:31:29.695Z,57.38829904709963
2023-02-04T18:34:35.439Z,56.51951598791414
2023-02-04T18:37:28.760Z,55.50224029081857
2023-02-04T18:41:31.348Z,54.73787414678059
2023-02-04T18:44:27.717Z,54.49701754562457
2023-02-04T18:47:27.177Z,54.38224484466453
2023-02-04T18:51:24.947Z,54.27943407664673
2023-02-04T18:54:26.297Z,53.823967864451376
2023-02-04T18:57:23.904Z,53.63253918460741
2023-02-04T19:01:21.839Z,53.536522200853994
2023-02-04T19:04:21.165Z,53.065051798913544
2023-02-04T19:07:16.250Z,52.9748557699495
2023-02-04T19:11:32.405Z,53.00170548518931
2023-02-04T19:14:23.536Z,53.15187518457442
2023-02-04T19:17:23.686Z,53.089535370095895
2023-02-04T19:21:30.687Z,52.77717689763165
2023-02-04T19:24:21.586Z,52.90358978758432
2023-02-04T19:27:29.163Z,52.96975929544119
2023-02-04T19:31:16.566Z,52.93760739007035
2023-02-04T19:34:24.017Z,52.94180986106601
2023-02-04T19:37:22.621Z,52.851992967864284
2023-02-04T19:41:25.850Z,52.992705233748794
2023-02-04T19:44:42.856Z,53.1945646367221
2023-02-04T19:47:25.899Z,53.261313704314844
2023-02-04T19:51:24.628Z,53.09775644694694
2023-02-04T19:54:18.367Z,53.107730540130326
2023-02-04T19:57:23.277Z,53.48219442134988
2023-02-04T20:01:18.454Z,52.858816048588075
2023-02-04T20:04:19.709Z,52.73476174484361
2023-02-04T20:07:20.789Z,52.727610230624585
2023-02-04T20:11:54.115Z,52.60218053158674
2023-02-04T20:14:24.929Z,52.460519937413345
2023-02-04T20:17:22.560Z,52.31293797496324
2023-02-04T20:21:16.671Z,51.65538000205022
2023-02-04T20:24:17.375Z,51.71834152992658
2023-02-04T20:27:21.444Z,51.37860840466222
2023-02-04T20:31:25.155Z,51.079495566145305
2023-02-04T20:34:21.003Z,50.61463713979521
2023-02-04T20:37:22.826Z,50.15412979150202
2023-02-04T20:41:19.927Z,49.28968730917704
2023-02-04T20:44:25.287Z,48.58156514714045
2023-02-04T20:47:18.704Z,48.137154716375
2023-02-04T20:51:23.130Z,47.27177656563355
2023-02-04T20:54:20.712Z,46.9291341776919
2023-02-04T20:57:21.934Z,46.22008982694071
2023-02-04T21:01:25.043Z,46.19795673891295
2023-02-04T21:04:22.218Z,46.18518305841582
2023-02-04T21:07:20.732Z,46.20212321794043
2023-02-04T21:11:17.363Z,46.22875937353252
2023-02-04T21:14:20.280Z,45.89714301799916
2023-02-04T21:17:18.491Z,45.94710568594785
2023-02-04T21:21:18.029Z,45.250432368893726
2023-02-04T21:24:19.218Z,44.94197605953883
2023-02-04T21:27:25.118Z,44.80685823235073
2023-02-04T21:31:17.873Z,44.973686907053704
2023-02-04T21:34:17.645Z,44.30024318888086
2023-02-04T21:37:19.985Z,44.625092443708944
2023-02-04T21:41:17.654Z,43.94046452485711
2023-02-04T21:44:18.775Z,44.01276986800477
2023-02-04T21:47:19.197Z,44.10753408488571
2023-02-04T21:51:17.078Z,44.00044299897324
2023-02-04T21:54:19.516Z,43.68605289462918
2023-02-04T21:57:18.975Z,43.6747214434714
2023-02-04T22:01:18.340Z,43.180521479229036
2023-02-04T22:04:18.208Z,42.79882241212139
2023-02-04T22:07:17.808Z,43.12946703115828
2023-02-04T22:11:17.879Z,43.08379964358103
2023-02-04T22:14:16.798Z,43.04430663789478
2023-02-04T22:17:16.730Z,42.741147803627975
2023-02-04T22:21:16.285Z,42.69117780925445
2023-02-04T22:24:16.716Z,42.57293007719072
2023-02-04T22:27:17.063Z,42.813577560154144
2023-02-04T22:31:17.151Z,42.50420012903255
2023-02-04T22:34:17.451Z,42.795075339650964
2023-02-04T22:37:17.268Z,42.91811007386447
2023-02-04T22:41:16.876Z,42.73806519128836
2023-02-04T22:44:17.338Z,43.062222557958805
2023-02-04T22:47:17.175Z,42.927034897584264
2023-02-04T22:51:16.715Z,42.96597899667796
2023-02-04T22:54:17.193Z,42.971112955962205
2023-02-04T22:57:17.119Z,43.06565940918208
2023-02-04T23:01:16.855Z,43.177299644901545
2023-02-04T23:04:17.220Z,43.15444808173577
2023-02-04T23:07:17.787Z,43.29381371814033
2023-02-04T23:11:17.847Z,43.32077722233026
2023-02-04T23:14:16.684Z,43.21971692390468
2023-02-04T23:17:17.293Z,43.264711621283844
2023-02-04T23:21:16.887Z,43.15731300461113
2023-02-04T23:24:16.878Z,43.425049636205465
2023-02-04T23:27:17.217Z,43.63147113118654
2023-02-04T23:31:17.009Z,43.670006684905175
2023-02-04T23:34:17.452Z,43.69271493538541
2023-02-04T23:37:17.385Z,43.63002747152609
2023-02-04T23:41:16.519Z,43.869652376593024
2023-02-04T23:44:17.199Z,44.11471763817443
2023-02-04T23:47:17.994Z,44.08087612290004
2023-02-04T23:51:16.206Z,44.291561667910514
2023-02-04T23:54:16.598Z,43.84408319544307
2023-02-04T23:57:16.748Z,44.212934997346686
